Time;durP1;ratioP1;P1;durP2;ratioP2;P2;SDS_P1;SDS_P2;PMS_P1;PMS_P2;Temp;Humidity;BMP_temperature;BMP_pressure;BME280_temperature;BME280_humidity;BME280_pressure;Samples;Min_cycle;Max_cycle;Signal;HPM_P1;HPM_P2
2023/10/06 00:00:26;;;;;;;5.10;2.70;;;8.80;99.90;;;9.77;100.00;99216.72;5020017;28;20544;-81
2023/10/06 00:02:57;;;;;;;4.20;2.10;;;8.80;99.90;;;9.78;100.00;99214.94;5020570;28;20483;-81
2023/10/06 00:05:29;;;;;;;5.30;2.57;;;8.70;99.90;;;9.75;100.00;99216.09;5020287;28;21217;-82
2023/10/06 00:07:59;;;;;;;7.00;2.50;;;8.70;99.90;;;9.62;100.00;99223.47;5020059;28;20478;-81
2023/10/06 00:10:32;;;;;;;5.23;3.00;;;8.70;99.90;;;9.66;100.00;99218.75;5019892;28;21008;-81
2023/10/06 00:13:04;;;;;;;4.70;3.07;;;8.70;99.90;;;9.63;100.00;99217.28;5018948;28;20498;-81
2023/10/06 00:15:38;;;;;;;3.90;2.50;;;8.70;99.90;;;9.52;100.00;99214.91;5019273;28;20472;-81
2023/10/06 00:18:09;;;;;;;9.70;3.33;;;8.60;99.90;;;9.55;100.00;99218.03;5019863;28;20465;-81
2023/10/06 00:20:45;;;;;;;3.83;1.90;;;8.60;99.90;;;9.56;100.00;99222.28;5020967;28;20463;-81
2023/10/06 00:23:16;;;;;;;3.97;2.40;;;8.60;99.90;;;9.54;100.00;99226.81;5019458;28;20469;-81
2023/10/06 00:25:46;;;;;;;12.23;2.80;;;8.60;99.90;;;9.49;100.00;99223.88;5020258;28;20465;-81
2023/10/06 00:28:19;;;;;;;5.93;2.90;;;8.60;99.90;;;9.52;100.00;99217.50;5016838;28;20462;-81
2023/10/06 00:30:55;;;;;;;5.10;2.60;;;8.60;99.90;;;9.47;100.00;99227.59;5018835;28;20462;-81
2023/10/06 00:33:27;;;;;;;4.40;2.83;;;8.70;99.90;;;9.46;100.00;99224.19;5019246;28;20459;-81
2023/10/06 00:35:58;;;;;;;8.53;2.67;;;8.50;99.90;;;9.48;100.00;99224.00;5018275;28;20462;-81
2023/10/06 00:38:30;;;;;;;4.03;2.60;;;8.50;99.90;;;9.44;100.00;99220.88;5017402;28;20466;-81
2023/10/06 00:41:06;;;;;;;5.40;3.07;;;8.40;99.90;;;9.39;100.00;99220.53;5021651;28;20467;-82
2023/10/06 00:43:39;;;;;;;7.10;2.40;;;8.40;99.90;;;9.35;100.00;99219.19;5019983;28;20463;-81
2023/10/06 00:46:09;;;;;;;8.63;2.77;;;8.50;99.90;;;9.32;100.00;99214.25;5019804;28;20973;-81
2023/10/06 00:48:40;;;;;;;4.57;2.90;;;8.40;99.90;;;9.32;100.00;99214.25;5019145;28;20465;-81
2023/10/06 00:51:19;;;;;;;4.33;2.73;;;8.30;99.90;;;9.34;100.00;99212.31;5018324;28;20481;-81
2023/10/06 00:53:51;;;;;;;9.80;2.63;;;8.40;99.90;;;9.36;100.00;99209.56;5021411;28;21026;-81
2023/10/06 00:56:23;;;;;;;4.27;2.63;;;8.30;99.90;;;9.32;100.00;99210.81;5019124;28;20965;-81
2023/10/06 00:58:54;;;;;;;5.70;2.50;;;8.40;99.90;;;9.30;100.00;99210.97;5018963;28;20477;-81
2023/10/06 01:01:24;;;;;;;4.60;2.40;;;8.40;99.90;;;9.29;100.00;99211.97;5021144;28;20839;-81
2023/10/06 01:04:00;;;;;;;3.97;2.53;;;8.20;99.90;;;9.14;100.00;99221.25;5019464;28;20462;-82
2023/10/06 01:06:37;;;;;;;3.37;2.20;;;8.20;99.90;;;9.14;100.00;99218.66;5018952;28;20466;-82
2023/10/06 01:09:14;;;;;;;4.60;2.67;;;8.20;99.90;;;9.13;100.00;99224.84;5019906;28;20498;-81
2023/10/06 01:11:47;;;;;;;4.97;1.90;;;8.20;99.90;;;9.10;100.00;99219.91;5020568;28;20462;-81
2023/10/06 01:14:21;;;;;;;5.97;2.33;;;8.20;99.90;;;9.07;100.00;99222.81;5019742;28;20555;-81
2023/10/06 01:16:55;;;;;;;2.77;1.97;;;8.20;99.90;;;9.12;100.00;99220.59;5017598;28;20455;-81
2023/10/06 01:19:27;;;;;;;3.10;2.20;;;8.20;99.90;;;9.10;100.00;99214.69;5018883;28;20470;-81
2023/10/06 01:22:07;;;;;;;2.70;2.00;;;8.00;99.90;;;9.04;100.00;99215.31;5021263;28;20473;-81
2023/10/06 01:24:37;;;;;;;5.27;2.53;;;8.00;99.90;;;8.96;100.00;99204.78;5019462;28;20476;-79
2023/10/06 01:27:07;;;;;;;4.50;2.40;;;8.00;99.90;;;8.93;100.00;99205.06;5020147;28;20478;-81
2023/10/06 01:29:38;;;;;;;7.40;2.37;;;8.00;99.90;;;8.96;100.00;99202.16;5018172;28;20508;-81
2023/10/06 01:32:09;;;;;;;4.87;2.60;;;8.10;99.90;;;8.93;100.00;99200.69;5018771;28;20472;-81
2023/10/06 01:34:39;;;;;;;6.13;2.67;;;8.00;99.90;;;8.93;100.00;99194.63;5019574;28;20466;-81
2023/10/06 01:37:10;;;;;;;4.93;2.60;;;8.10;99.90;;;8.92;100.00;99196.44;5018821;28;20458;-81
2023/10/06 01:39:43;;;;;;;5.60;2.27;;;8.00;99.90;;;8.90;100.00;99187.13;5019003;28;20461;-81
2023/10/06 01:42:17;;;;;;;3.60;2.10;;;8.00;99.90;;;8.90;100.00;99192.34;5017362;28;20462;-81
2023/10/06 01:44:47;;;;;;;4.43;2.30;;;8.10;99.90;;;8.92;100.00;99191.22;5019568;28;20466;-81
2023/10/06 01:47:18;;;;;;;6.80;2.40;;;8.00;99.90;;;8.91;100.00;99194.81;5018131;28;20886;-81
2023/10/06 01:49:49;;;;;;;4.50;2.50;;;7.90;99.90;;;8.77;100.00;99186.66;5019088;28;20494;-81
2023/10/06 01:52:20;;;;;;;4.30;2.60;;;7.80;99.90;;;8.68;100.00;99190.97;5018278;28;21057;-81
2023/10/06 01:54:51;;;;;;;4.70;2.70;;;7.80;99.90;;;8.70;100.00;99190.81;5019820;28;20462;-81
2023/10/06 01:57:24;;;;;;;4.33;2.40;;;7.80;99.90;;;8.72;100.00;99188.88;5017477;28;20461;-83
2023/10/06 01:59:54;;;;;;;2.90;2.00;;;7.70;99.90;;;8.70;100.00;99185.59;5017027;28;21273;-82
2023/10/06 02:02:24;;;;;;;4.97;2.20;;;7.80;99.90;;;8.72;100.00;99186.28;5017849;28;20462;-81
2023/10/06 02:04:57;;;;;;;7.23;2.57;;;7.70;99.90;;;8.64;100.00;99186.19;5017465;28;20545;-81
2023/10/06 02:07:27;;;;;;;2.90;2.13;;;7.70;99.90;;;8.67;100.00;99191.13;5015706;28;20483;-81
2023/10/06 02:09:58;;;;;;;5.37;2.40;;;7.60;99.90;;;8.66;100.00;99189.47;5016455;28;20980;-81
2023/10/06 02:12:27;;;;;;;5.00;2.17;;;7.70;99.90;;;8.61;100.00;99191.72;5016258;28;20466;-81
2023/10/06 02:14:58;;;;;;;5.17;2.77;;;7.50;99.90;;;8.56;100.00;99179.94;5017005;28;20473;-81
2023/10/06 02:17:30;;;;;;;8.60;2.70;;;7.60;99.90;;;8.57;100.00;99185.97;5016314;28;22513;-82
2023/10/06 02:20:00;;;;;;;4.27;2.70;;;7.70;99.90;;;8.55;100.00;99185.28;5017874;28;20476;-81
2023/10/06 02:22:31;;;;;;;5.80;2.27;;;7.60;99.90;;;8.51;100.00;99182.16;5017471;28;20818;-81
2023/10/06 02:25:05;;;;;;;4.63;2.50;;;7.60;99.90;;;8.49;100.00;99185.88;5017868;28;20542;-81
2023/10/06 02:27:44;;;;;;;3.17;2.40;;;7.60;99.90;;;8.53;100.00;99177.63;5015845;28;20545;-81
2023/10/06 02:30:15;;;;;;;6.60;2.50;;;7.60;99.90;;;8.53;100.00;99169.81;5016366;28;20490;-81
2023/10/06 02:32:45;;;;;;;3.50;2.37;;;7.60;99.90;;;8.50;100.00;99175.28;5017776;28;20470;-81
2023/10/06 02:35:17;;;;;;;10.90;2.60;;;7.60;99.90;;;8.47;100.00;99172.97;5018365;28;20465;-81
2023/10/06 02:37:49;;;;;;;3.47;2.40;;;7.60;99.90;;;8.46;100.00;99179.16;5018931;28;20461;-81
2023/10/06 02:40:29;;;;;;;2.83;2.40;;;7.50;99.90;;;8.49;100.00;99173.66;5016425;28;20869;-81
2023/10/06 02:43:02;;;;;;;8.03;2.40;;;7.50;99.90;;;8.46;100.00;99175.75;5017303;28;20467;-81
2023/10/06 02:45:40;;;;;;;3.67;2.40;;;7.40;99.90;;;8.45;100.00;99177.53;5017790;28;20458;-81
2023/10/06 02:48:17;;;;;;;4.13;2.20;;;7.40;99.90;;;8.49;100.00;99168.44;5017161;28;20453;-81
2023/10/06 02:50:54;;;;;;;6.23;2.40;;;7.50;99.90;;;8.48;100.00;99164.19;5018986;28;21012;-81
2023/10/06 02:53:23;;;;;;;3.80;2.30;;;7.50;99.90;;;8.48;100.00;99160.75;5016421;28;20466;-81
2023/10/06 02:55:56;;;;;;;2.90;1.90;;;7.40;99.90;;;8.42;100.00;99167.38;5015923;28;20460;-81
2023/10/06 02:58:27;;;;;;;2.07;1.73;;;7.50;99.90;;;8.42;100.00;99161.34;5019636;28;20904;-82
2023/10/06 03:00:58;;;;;;;3.07;1.80;;;7.50;99.90;;;8.38;100.00;99166.03;5016834;28;20545;-81
2023/10/06 03:03:33;;;;;;;5.43;2.33;;;7.40;99.90;;;8.38;100.00;99160.00;5017520;28;20462;-83
2023/10/06 03:06:07;;;;;;;4.73;2.20;;;7.40;99.90;;;8.38;100.00;99158.22;5016463;28;20465;-82
2023/10/06 03:08:42;;;;;;;3.60;2.00;;;7.50;99.90;;;8.39;100.00;99152.03;5015706;28;20993;-83
2023/10/06 03:11:22;;;;;;;5.27;2.80;;;7.30;99.90;;;8.32;100.00;99151.00;5018660;28;20578;-81
2023/10/06 03:13:54;;;;;;;4.30;2.30;;;7.30;99.90;;;8.33;100.00;99152.59;5018220;28;20466;-81
2023/10/06 03:16:25;;;;;;;5.47;1.97;;;7.30;99.90;;;8.32;100.00;99152.78;5017543;28;20537;-81
2023/10/06 03:18:57;;;;;;;4.27;1.83;;;7.20;99.90;;;8.25;100.00;99160.31;5017933;28;20465;-81
2023/10/06 03:21:30;;;;;;;4.40;2.17;;;7.30;99.90;;;8.28;100.00;99159.19;5018302;28;20466;-81
2023/10/06 03:24:05;;;;;;;5.53;2.20;;;7.30;99.90;;;8.26;100.00;99169.75;5017900;28;20491;-81
2023/10/06 03:26:43;;;;;;;2.43;2.23;;;7.30;99.90;;;8.19;100.00;99171.28;5016723;28;20527;-81
2023/10/06 03:29:29;;;;;;;3.80;2.17;;;7.30;99.90;;;8.23;100.00;99161.41;5016512;28;20968;-80
2023/10/06 03:32:00;;;;;;;3.77;1.90;;;7.30;99.90;;;8.25;100.00;99160.31;5016051;28;21001;-86
2023/10/06 03:34:29;;;;;;;5.93;2.20;;;7.30;99.90;;;8.20;100.00;99164.31;5018419;28;24166;-82
2023/10/06 03:36:59;;;;;;;10.90;2.40;;;7.20;99.90;;;8.19;100.00;99163.47;5015485;28;20472;-78
2023/10/06 03:39:31;;;;;;;2.60;2.20;;;7.20;99.90;;;8.18;100.00;99163.63;5018393;28;20466;-79
2023/10/06 03:42:07;;;;;;;5.80;2.30;;;7.10;99.90;;;8.13;100.00;99161.44;5018289;28;20505;-79
2023/10/06 03:44:36;;;;;;;2.33;1.70;;;7.20;99.90;;;8.16;100.00;99160.38;5017803;28;20461;-79
2023/10/06 03:47:08;;;;;;;3.43;2.03;;;7.20;99.90;;;8.14;100.00;99165.72;5016280;28;20529;-79
2023/10/06 03:49:40;;;;;;;4.07;2.27;;;7.20;99.90;;;8.10;100.00;99161.75;5020068;28;20559;-78
2023/10/06 03:52:10;;;;;;;1.97;1.80;;;7.20;99.90;;;8.08;100.00;99174.94;5018123;28;20486;-79
2023/10/06 03:54:40;;;;;;;4.60;2.20;;;7.20;99.90;;;8.08;100.00;99174.09;5018943;28;20549;-79
2023/10/06 03:57:15;;;;;;;1.93;1.70;;;7.20;99.90;;;8.11;100.00;99168.59;5021968;28;20843;-78
2023/10/06 03:59:48;;;;;;;9.93;2.20;;;7.20;99.90;;;8.12;100.00;99172.03;5018112;28;20468;-78
2023/10/06 04:02:19;;;;;;;6.43;1.97;;;7.10;99.90;;;8.09;100.00;99165.31;5019848;28;20474;-78
2023/10/06 04:04:49;;;;;;;3.30;1.90;;;7.10;99.90;;;8.08;100.00;99163.69;5020090;28;20496;-78
2023/10/06 04:07:23;;;;;;;3.80;2.67;;;7.10;99.90;;;8.04;100.00;99159.72;5019092;28;20466;-79
2023/10/06 04:09:53;;;;;;;2.93;2.00;;;7.10;99.90;;;8.03;100.00;99163.28;5018295;28;20544;-78
2023/10/06 04:12:25;;;;;;;5.17;1.93;;;7.10;99.90;;;8.00;100.00;99163.56;5019459;28;20497;-78
2023/10/06 04:14:56;;;;;;;4.03;2.50;;;7.10;99.90;;;8.03;100.00;99155.47;5019097;28;20641;-78
2023/10/06 04:17:26;;;;;;;6.60;2.00;;;7.10;99.90;;;8.06;100.00;99168.19;5020345;28;20504;-79
2023/10/06 04:19:56;;;;;;;2.30;1.70;;;7.10;99.90;;;8.06;100.00;99168.19;5019354;28;20458;-78
2023/10/06 04:22:25;;;;;;;5.40;2.73;;;7.00;99.90;;;8.03;100.00;99171.09;5018886;28;21139;-78
2023/10/06 04:24:56;;;;;;;6.10;2.00;;;7.10;99.90;;;7.94;100.00;99166.75;5021073;28;20458;-78
2023/10/06 04:27:28;;;;;;;2.40;2.00;;;7.10;99.90;;;7.95;100.00;99174.41;5022007;28;20527;-78
2023/10/06 04:29:59;;;;;;;8.53;2.10;;;7.00;99.90;;;7.95;100.00;99173.59;5021571;28;20558;-79
2023/10/06 04:32:28;;;;;;;5.03;2.20;;;7.00;99.90;;;7.88;100.00;99172.53;5019621;28;20529;-77
2023/10/06 04:35:00;;;;;;;3.10;1.97;;;7.10;99.90;;;7.88;100.00;99182.97;5020491;28;20464;-78
2023/10/06 04:37:30;;;;;;;3.30;1.93;;;7.00;99.90;;;7.90;100.00;99181.84;5017950;28;20497;-78
2023/10/06 04:39:59;;;;;;;6.10;2.20;;;6.90;99.90;;;7.87;100.00;99182.13;5020176;28;20469;-79
2023/10/06 04:42:31;;;;;;;2.87;1.93;;;7.00;99.90;;;7.89;100.00;99179.38;5017596;28;20469;-78
2023/10/06 04:45:00;;;;;;;5.40;2.30;;;7.00;99.90;;;7.88;100.00;99178.53;5019385;28;20458;-79
2023/10/06 04:47:36;;;;;;;3.40;2.30;;;7.00;99.90;;;7.86;100.00;99180.47;5019168;28;20552;-79
2023/10/06 04:50:11;;;;;;;5.33;2.40;;;6.90;99.90;;;7.84;100.00;99176.38;5019262;28;20532;-79
2023/10/06 04:52:44;;;;;;;5.17;2.43;;;6.90;99.90;;;7.75;100.00;99166.81;5021824;28;20486;-79
2023/10/06 04:55:14;;;;;;;3.33;2.17;;;6.90;99.90;;;7.71;100.00;99171.47;5021932;28;20461;-80
2023/10/06 04:57:47;;;;;;;3.50;2.13;;;6.80;99.90;;;7.72;100.00;99162.69;5023020;28;20494;-79
2023/10/06 05:00:20;;;;;;;3.47;2.10;;;6.70;99.90;;;7.71;100.00;99165.44;5020202;28;20450;-80
2023/10/06 05:02:51;;;;;;;4.90;2.57;;;6.70;99.90;;;7.69;100.00;99165.59;5023531;28;20836;-80
2023/10/06 05:05:22;;;;;;;2.53;2.00;;;6.70;99.90;;;7.66;100.00;99162.44;5022050;28;20458;-80
2023/10/06 05:07:55;;;;;;;6.93;2.40;;;6.70;99.90;;;7.70;100.00;99163.81;5021840;28;20535;-80
2023/10/06 05:10:26;;;;;;;2.93;2.37;;;6.70;99.90;;;7.62;100.00;99168.91;5021902;28;20529;-80
2023/10/06 05:12:57;;;;;;;4.40;2.67;;;6.70;99.90;;;7.60;100.00;99158.66;5020327;28;21021;-80
2023/10/06 05:15:30;;;;;;;4.87;2.30;;;6.60;99.90;;;7.51;100.00;99170.69;5021032;28;20461;-79
2023/10/06 05:18:00;;;;;;;12.43;2.47;;;6.50;99.90;;;7.48;100.00;99170.97;5018680;28;20498;-80
2023/10/06 05:20:32;;;;;;;3.40;2.10;;;6.40;99.90;;;7.52;100.00;99161.13;5020227;28;20560;-80
2023/10/06 05:23:07;;;;;;;4.10;2.07;;;6.50;99.90;;;7.49;100.00;99164.81;5022466;28;20489;-80
2023/10/06 05:25:38;;;;;;;3.17;2.30;;;6.50;99.90;;;7.48;100.00;99176.19;5021119;28;20466;-80
2023/10/06 05:28:11;;;;;;;3.93;1.80;;;6.50;99.90;;;7.45;100.00;99173.88;5020468;28;20462;-80
2023/10/06 05:30:41;;;;;;;3.67;2.50;;;6.50;99.90;;;7.46;100.00;99164.28;5020155;28;20463;-80
2023/10/06 05:33:14;;;;;;;2.70;2.30;;;6.50;99.90;;;7.51;100.00;99167.28;5020108;28;20492;-80
2023/10/06 05:35:45;;;;;;;5.83;2.87;;;6.50;99.90;;;7.44;100.00;99154.00;5019478;28;20497;-80
2023/10/06 05:38:16;;;;;;;5.03;1.50;;;6.50;99.90;;;7.45;100.00;99149.63;5019889;28;20467;-79
2023/10/06 05:40:48;;;;;;;3.40;2.13;;;6.50;99.90;;;7.41;100.00;99153.47;5020205;28;20873;-79
2023/10/06 05:43:28;;;;;;;8.40;2.60;;;6.40;99.90;;;7.37;100.00;99158.13;5021333;28;21194;-80
2023/10/06 05:45:57;;;;;;;3.90;2.47;;;6.40;99.90;;;7.37;100.00;99158.13;5019462;28;20469;-79
2023/10/06 05:48:30;;;;;;;3.80;2.50;;;6.40;99.90;;;7.30;100.00;99159.63;5020612;28;20473;-79
2023/10/06 05:51:08;;;;;;;6.73;2.50;;;6.40;99.90;;;7.27;100.00;99157.31;5020156;28;20557;-79
2023/10/06 05:53:42;;;;;;;4.60;2.80;;;6.20;99.90;;;7.34;100.00;99153.19;5019300;28;20462;-80
2023/10/06 05:56:15;;;;;;;2.90;2.10;;;6.30;99.90;;;7.42;100.00;99149.91;5019200;28;20458;-80
2023/10/06 05:58:47;;;;;;;4.03;2.30;;;6.40;99.90;;;7.40;100.00;99160.44;5018387;28;20463;-79
2023/10/06 06:01:20;;;;;;;2.73;2.47;;;6.40;99.90;;;7.42;100.00;99161.13;5018622;28;20911;-80
2023/10/06 06:03:51;;;;;;;5.73;2.67;;;6.40;99.90;;;7.43;100.00;99156.72;5017369;28;20513;-80
2023/10/06 06:06:24;;;;;;;4.50;2.90;;;6.50;99.90;;;7.33;100.00;99161.13;5017423;28;20477;-79
2023/10/06 06:08:55;;;;;;;4.30;2.77;;;6.40;99.90;;;7.27;100.00;99159.91;5017976;28;20486;-80
2023/10/06 06:11:28;;;;;;;3.10;2.00;;;6.40;99.90;;;7.35;100.00;99173.06;5015863;28;20542;-80
2023/10/06 06:14:00;;;;;;;4.30;2.60;;;6.40;99.90;;;7.39;100.00;99181.41;5020054;28;20477;-80
2023/10/06 06:16:46;;;;;;;4.47;2.40;;;6.40;99.90;;;7.38;100.00;99170.19;5019590;28;20457;-79
2023/10/06 06:19:17;;;;;;;7.50;2.53;;;6.40;99.90;;;7.41;100.00;99177.69;5020389;28;20466;-79
2023/10/06 06:21:48;;;;;;;7.57;2.60;;;6.40;99.90;;;7.43;100.00;99175.78;5020517;28;20454;-80
2023/10/06 06:24:22;;;;;;;2.33;2.03;;;6.40;99.90;;;7.50;100.00;99181.22;5021378;28;20931;-79
2023/10/06 06:26:52;;;;;;;5.30;2.70;;;6.40;99.90;;;7.49;100.00;99177.84;5020907;28;20461;-80
2023/10/06 06:29:24;;;;;;;4.73;2.17;;;6.40;99.90;;;7.47;100.00;99178.91;5019499;28;20980;-80
2023/10/06 06:31:55;;;;;;;4.67;2.60;;;6.40;99.90;;;7.54;100.00;99170.41;5019163;28;20474;-80
2023/10/06 06:34:27;;;;;;;5.80;2.90;;;6.50;99.90;;;7.59;100.00;99176.03;5019984;28;20459;-79
2023/10/06 06:36:58;;;;;;;5.60;2.80;;;6.60;99.90;;;7.68;100.00;99186.53;5019130;28;20458;-79
2023/10/06 06:39:34;;;;;;;15.73;2.93;;;6.70;99.90;;;7.73;100.00;99185.19;5019508;28;21613;-79
2023/10/06 06:42:05;;;;;;;3.40;2.27;;;6.70;99.90;;;7.79;100.00;99189.00;5019532;28;20471;-80
2023/10/06 06:44:38;;;;;;;4.77;3.50;;;6.80;99.90;;;7.78;100.00;99187.34;5019610;28;20463;-80
2023/10/06 06:47:09;;;;;;;3.37;2.40;;;6.80;99.90;;;7.83;100.00;99183.38;5019663;28;20486;-79
2023/10/06 06:49:40;;;;;;;11.53;2.90;;;6.80;99.90;;;7.88;100.00;99199.38;5018302;28;20471;-79
2023/10/06 06:52:12;;;;;;;7.87;3.40;;;6.90;99.90;;;7.89;100.00;99200.19;5018207;28;20485;-80
2023/10/06 06:54:46;;;;;;;5.53;3.00;;;6.90;99.90;;;7.93;100.00;99199.78;5017085;28;20454;-80
2023/10/06 06:57:17;;;;;;;5.13;2.60;;;6.90;99.90;;;7.95;100.00;99210.88;5018457;28;20469;-80
2023/10/06 06:59:50;;;;;;;4.83;2.30;;;6.90;99.90;;;7.89;100.00;99211.44;5017057;28;20513;-80
2023/10/06 07:02:20;;;;;;;3.80;2.50;;;6.90;99.90;;;7.94;100.00;99195.41;5016392;28;20473;-79
2023/10/06 07:04:51;;;;;;;3.20;2.23;;;7.00;99.90;;;8.01;100.00;99191.25;5016771;28;20474;-80
2023/10/06 07:07:20;;;;;;;12.00;2.53;;;7.00;99.90;;;8.03;100.00;99191.94;5017588;28;20934;-80
2023/10/06 07:09:50;;;;;;;5.17;3.10;;;7.10;99.90;;;8.10;100.00;99193.00;5016800;28;21011;-80
2023/10/06 07:12:23;;;;;;;2.90;2.40;;;7.20;99.90;;;8.14;100.00;99189.16;5018054;28;20508;-80
2023/10/06 07:14:56;;;;;;;4.37;2.80;;;7.20;99.90;;;8.16;100.00;99195.03;5020528;28;20845;-80
2023/10/06 07:17:26;;;;;;;6.60;2.67;;;7.20;99.90;;;8.19;100.00;99197.34;5018981;28;20565;-80
2023/10/06 07:20:00;;;;;;;7.70;3.40;;;7.30;99.90;;;8.24;100.00;99195.16;5019911;28;20450;-79
2023/10/06 07:22:32;;;;;;;4.53;3.00;;;7.30;99.90;;;8.28;100.00;99196.53;5021539;28;21225;-80
2023/10/06 07:25:02;;;;;;;4.83;2.73;;;7.30;99.90;;;8.31;100.00;99193.63;5023208;28;20475;-79
2023/10/06 07:27:34;;;;;;;6.97;3.33;;;7.40;99.90;;;8.37;100.00;99194.84;5022750;28;20476;-80
2023/10/06 07:30:10;;;;;;;12.27;3.20;;;7.40;99.90;;;8.42;100.00;99195.22;5022147;28;20453;-79
2023/10/06 07:32:41;;;;;;;5.37;3.07;;;7.40;99.90;;;8.44;100.00;99203.72;5022453;28;20584;-80
2023/10/06 07:35:13;;;;;;;11.57;3.20;;;7.40;99.90;;;8.44;100.00;99199.31;5022841;28;20489;-80
2023/10/06 07:37:44;;;;;;;6.63;3.07;;;7.40;99.90;;;8.47;100.00;99196.44;5022849;28;20455;-79
2023/10/06 07:40:18;;;;;;;6.10;2.63;;;7.50;99.90;;;8.49;100.00;99194.50;5023821;28;20551;-80
2023/10/06 07:42:50;;;;;;;5.07;3.33;;;7.60;99.90;;;8.52;100.00;99199.44;5023879;28;20464;-80
2023/10/06 07:45:23;;;;;;;10.07;3.03;;;7.60;99.90;;;8.58;100.00;99205.84;5022887;28;20463;-80
2023/10/06 07:47:53;;;;;;;6.93;2.80;;;7.60;99.90;;;8.59;100.00;99205.72;5023282;28;20470;-80
2023/10/06 07:50:26;;;;;;;5.17;3.20;;;7.70;99.90;;;8.64;100.00;99196.63;5020729;28;20568;-80
2023/10/06 07:52:56;;;;;;;10.03;3.97;;;7.70;99.90;;;8.68;100.00;99190.16;5020330;28;20565;-79
2023/10/06 07:55:27;;;;;;;4.70;2.80;;;7.70;99.90;;;8.71;100.00;99187.25;5021448;28;21012;-80
2023/10/06 07:57:58;;;;;;;7.17;3.13;;;7.80;99.90;;;8.73;100.00;99188.75;5020419;28;20471;-79
2023/10/06 08:00:29;;;;;;;5.03;2.73;;;7.80;99.90;;;8.74;100.00;99193.00;5020337;28;20457;-80
2023/10/06 08:03:01;;;;;;;7.90;3.07;;;7.80;99.90;;;8.80;100.00;99187.19;5020892;28;20845;-80
2023/10/06 08:05:31;;;;;;;5.27;3.17;;;7.90;99.90;;;8.86;100.00;99183.16;5021093;28;20532;-80
2023/10/06 08:08:04;;;;;;;4.53;3.17;;;8.00;99.90;;;8.92;100.00;99190.41;5021679;28;20481;-80
2023/10/06 08:10:34;;;;;;;4.87;2.93;;;8.00;99.90;;;8.95;100.00;99188.34;5022718;28;20458;-80
2023/10/06 08:13:07;;;;;;;3.27;2.60;;;8.10;99.90;;;9.01;100.00;99189.50;5023835;28;20548;-79
2023/10/06 08:15:44;;;;;;;4.40;2.83;;;8.10;99.90;;;9.04;100.00;99189.22;5023906;28;20459;-80
2023/10/06 08:18:15;;;;;;;9.03;2.80;;;8.20;99.90;;;9.08;100.00;99186.16;5023041;28;20468;-80
2023/10/06 08:20:47;;;;;;;5.00;3.07;;;8.20;99.90;;;9.12;100.00;99193.69;5022736;28;20461;-79
2023/10/06 08:23:18;;;;;;;6.53;3.00;;;8.20;99.90;;;9.16;100.00;99192.44;5022850;28;20466;-80
2023/10/06 08:25:49;;;;;;;7.37;2.97;;;8.30;99.90;;;9.19;100.00;99192.94;5022680;28;20469;-79
2023/10/06 08:28:31;;;;;;;6.37;3.20;;;8.40;99.90;;;9.26;100.00;99198.38;5023285;28;20498;-79
2023/10/06 08:31:03;;;;;;;6.00;3.20;;;8.40;99.90;;;9.31;100.00;99196.13;5023439;28;20467;-80
2023/10/06 08:33:35;;;;;;;5.30;3.30;;;8.50;99.90;;;9.38;100.00;99200.59;5022926;28;20525;-80
2023/10/06 08:36:10;;;;;;;6.40;3.10;;;8.50;99.90;;;9.43;100.00;99206.19;5022001;28;20928;-80
2023/10/06 08:38:40;;;;;;;8.03;3.20;;;8.60;99.90;;;9.49;100.00;99197.75;5022440;28;21027;-80
2023/10/06 08:41:12;;;;;;;4.37;2.80;;;8.70;99.90;;;9.57;100.00;99187.38;5021509;28;20458;-79
2023/10/06 08:43:46;;;;;;;4.10;3.10;;;8.70;99.90;;;9.64;100.00;99186.78;5022978;28;20497;-80
2023/10/06 08:46:17;;;;;;;7.37;2.93;;;8.80;99.90;;;9.69;100.00;99189.72;5019995;28;20489;-79
2023/10/06 08:48:49;;;;;;;8.83;2.60;;;8.90;99.90;;;9.75;100.00;99173.47;5018850;28;20497;-79
2023/10/06 08:51:25;;;;;;;6.67;2.77;;;8.90;99.90;;;9.81;100.00;99178.88;5021186;28;20566;-79
2023/10/06 08:53:59;;;;;;;9.30;3.00;;;9.00;99.90;;;9.86;100.00;99175.78;5019358;28;20525;-80
2023/10/06 08:56:33;;;;;;;5.00;2.80;;;9.10;99.90;;;9.92;100.00;99181.25;5019628;28;20493;-80
2023/10/06 08:59:05;;;;;;;5.53;2.90;;;9.20;99.90;;;9.99;100.00;99176.22;5020724;28;20469;-81
2023/10/06 09:01:38;;;;;;;4.20;2.80;;;9.20;99.90;;;10.03;100.00;99165.28;5019024;28;20502;-81
2023/10/06 09:04:10;;;;;;;8.70;3.20;;;9.30;99.90;;;10.09;100.00;99167.28;5018639;28;20850;-80
2023/10/06 09:07:12;;;;;;;4.23;2.33;;;9.40;99.90;;;10.17;100.00;99161.28;5021619;28;20474;-79
2023/10/06 09:09:43;;;;;;;7.60;3.07;;;9.40;99.90;;;10.23;100.00;99158.06;5019264;28;20544;-80
2023/10/06 09:12:25;;;;;;;5.87;2.50;;;9.50;99.90;;;10.29;100.00;99160.03;5021169;28;20484;-80
2023/10/06 09:14:56;;;;;;;5.77;3.20;;;9.60;99.90;;;10.38;100.00;99142.56;5020532;28;21157;-80
2023/10/06 09:17:36;;;;;;;23.67;3.80;;;9.60;99.90;;;10.41;100.00;99140.47;5020076;28;21012;-80
2023/10/06 09:20:07;;;;;;;3.80;2.60;;;9.80;99.90;;;10.48;100.00;99145.91;5021055;28;20903;-79
2023/10/06 09:22:57;;;;;;;8.67;3.00;;;9.80;99.90;;;10.56;100.00;99144.13;5020886;28;20459;-80
2023/10/06 09:25:29;;;;;;;6.20;2.63;;;9.90;99.90;;;10.71;100.00;99135.66;5022868;28;20470;-80
2023/10/06 09:28:08;;;;;;;9.33;3.27;;;10.10;99.90;;;10.74;100.00;99125.69;5022072;28;20460;-80
2023/10/06 09:30:56;;;;;;;5.50;2.93;;;10.10;99.90;;;10.88;100.00;99127.66;5020342;28;20458;-80
2023/10/06 09:33:42;;;;;;;13.67;3.47;;;10.30;99.90;;;10.95;100.00;99125.22;5020185;28;20489;-80
2023/10/06 09:36:17;;;;;;;9.13;2.80;;;10.40;99.90;;;11.04;100.00;99132.06;5019740;28;20475;-80
2023/10/06 09:39:06;;;;;;;8.77;3.40;;;10.50;99.90;;;11.14;100.00;99127.53;5020175;28;20454;-80
2023/10/06 09:41:38;;;;;;;6.73;2.70;;;10.60;99.90;;;11.22;100.00;99130.13;5021201;28;20550;-80
2023/10/06 09:44:11;;;;;;;6.43;2.83;;;10.70;99.90;;;11.33;100.00;99124.56;5016816;28;20467;-80
2023/10/06 09:46:42;;;;;;;6.13;2.80;;;10.80;99.90;;;11.42;100.00;99126.19;5016794;28;20475;-80
2023/10/06 09:49:18;;;;;;;8.20;2.20;;;10.90;99.90;;;11.52;100.00;99121.56;5016883;28;20455;-80
2023/10/06 09:51:52;;;;;;;11.07;2.70;;;11.00;99.90;;;11.58;100.00;99113.06;5018096;28;20459;-80
2023/10/06 09:54:22;;;;;;;19.23;3.17;;;11.10;99.90;;;11.73;100.00;99112.41;5018224;28;20855;-80
2023/10/06 09:56:55;;;;;;;8.70;2.73;;;11.20;99.90;;;11.85;100.00;99111.06;5017327;28;20957;-80
2023/10/06 09:59:27;;;;;;;11.57;2.83;;;11.30;99.90;;;11.99;100.00;99112.97;5018683;28;20470;-80
2023/10/06 10:01:59;;;;;;;9.63;2.67;;;11.40;99.90;;;12.20;100.00;99104.53;5018116;28;20521;-79
2023/10/06 10:04:35;;;;;;;8.40;3.00;;;11.60;99.90;;;12.26;100.00;99099.41;5021175;28;20542;-80
2023/10/06 10:07:06;;;;;;;4.50;2.10;;;11.70;99.90;;;12.39;100.00;99104.13;5020741;28;20897;-80
2023/10/06 10:09:39;;;;;;;7.20;2.63;;;11.90;99.90;;;12.52;100.00;99107.81;5020888;28;20457;-80
2023/10/06 10:12:38;;;;;;;9.27;2.20;;;12.00;99.90;;;12.61;100.00;99112.03;5020399;28;20457;-79
2023/10/06 10:15:28;;;;;;;6.70;2.80;;;12.10;99.90;;;12.66;100.00;99114.13;5020871;28;20541;-80
2023/10/06 10:18:12;;;;;;;4.50;2.60;;;12.20;99.90;;;12.70;100.00;99096.22;5022178;28;20485;-80
2023/10/06 10:20:46;;;;;;;8.20;2.80;;;12.20;99.90;;;12.84;100.00;99105.97;5020901;28;20544;-79
2023/10/06 10:23:17;;;;;;;12.63;2.80;;;12.30;99.90;;;12.98;100.00;99099.97;5019305;28;20463;-78
2023/10/06 10:25:49;;;;;;;8.43;2.60;;;12.40;99.90;;;13.01;100.00;99105.69;5020073;28;20466;-80
2023/10/06 10:28:21;;;;;;;6.17;2.13;;;12.50;99.90;;;13.05;100.00;99101.69;5020068;28;20537;-80
2023/10/06 10:30:56;;;;;;;8.07;3.47;;;12.50;99.90;;;13.13;100.00;99100.84;5020629;28;20870;-80
2023/10/06 10:33:29;;;;;;;7.60;2.60;;;12.70;99.90;;;13.22;100.00;99097.16;5019620;28;20458;-80
2023/10/06 10:36:23;;;;;;;11.63;3.07;;;12.70;99.90;;;13.27;100.00;99100.06;5017378;28;20913;-80
2023/10/06 10:39:07;;;;;;;10.20;4.00;;;12.80;99.90;;;13.27;100.00;99094.81;5017799;28;20454;-80
2023/10/06 10:41:38;;;;;;;10.20;2.77;;;12.80;99.90;;;13.32;100.00;99097.72;5018567;28;20573;-80
2023/10/06 10:44:11;;;;;;;19.20;3.03;;;12.80;99.90;;;13.37;100.00;99086.66;5017744;28;20466;-80
2023/10/06 10:46:56;;;;;;;8.40;2.53;;;12.90;99.90;;;13.45;100.00;99081.34;5018240;28;20500;-80